sensor_id;sensor_type;location;lat;lon;timestamp;P1;durP1;ratioP1;P2;durP2;ratioP2
55210;SDS011;41082;52.822;6.666;2023-01-26T00:02:11;44.83;;;18.30;;
55210;SDS011;41082;52.822;6.666;2023-01-26T00:04:36;44.65;;;18.38;;
55210;SDS011;41082;52.822;6.666;2023-01-26T00:07:02;45.35;;;18.30;;
55210;SDS011;41082;52.822;6.666;2023-01-26T00:09:27;41.90;;;19.00;;
55210;SDS011;41082;52.822;6.666;2023-01-26T00:11:53;49.15;;;19.83;;
55210;SDS011;41082;52.822;6.666;2023-01-26T00:14:18;46.53;;;18.60;;
55210;SDS011;41082;52.822;6.666;2023-01-26T00:16:44;47.03;;;20.13;;
55210;SDS011;41082;52.822;6.666;2023-01-26T00:19:10;48.63;;;20.27;;
55210;SDS011;41082;52.822;6.666;2023-01-26T00:21:35;49.15;;;20.50;;
55210;SDS011;41082;52.822;6.666;2023-01-26T00:24:01;49.95;;;20.80;;
55210;SDS011;41082;52.822;6.666;2023-01-26T00:26:28;52.03;;;20.20;;
55210;SDS011;41082;52.822;6.666;2023-01-26T00:28:54;55.13;;;21.27;;
55210;SDS011;41082;52.822;6.666;2023-01-26T00:31:20;48.85;;;21.13;;
55210;SDS011;41082;52.822;6.666;2023-01-26T00:33:47;52.03;;;20.42;;
55210;SDS011;41082;52.822;6.666;2023-01-26T00:36:13;52.60;;;20.65;;
55210;SDS011;41082;52.822;6.666;2023-01-26T00:38:39;49.80;;;21.50;;
55210;SDS011;41082;52.822;6.666;2023-01-26T00:41:05;55.00;;;20.73;;
55210;SDS011;41082;52.822;6.666;2023-01-26T00:43:30;48.60;;;21.67;;
55210;SDS011;41082;52.822;6.666;2023-01-26T00:45:56;53.63;;;21.10;;
55210;SDS011;41082;52.822;6.666;2023-01-26T00:48:22;54.05;;;20.85;;
55210;SDS011;41082;52.822;6.666;2023-01-26T00:50:49;47.88;;;19.92;;
55210;SDS011;41082;52.822;6.666;2023-01-26T00:53:15;51.53;;;21.73;;
55210;SDS011;41082;52.822;6.666;2023-01-26T00:55:41;48.17;;;20.33;;
55210;SDS011;41082;52.822;6.666;2023-01-26T00:58:07;52.20;;;21.17;;
55210;SDS011;41082;52.822;6.666;2023-01-26T01:00:34;50.28;;;20.85;;
55210;SDS011;41082;52.822;6.666;2023-01-26T01:03:01;48.58;;;21.25;;
55210;SDS011;41082;52.822;6.666;2023-01-26T01:05:28;52.72;;;19.50;;
55210;SDS011;41082;52.822;6.666;2023-01-26T01:07:55;47.92;;;19.77;;
55210;SDS011;41082;52.822;6.666;2023-01-26T01:10:21;51.95;;;20.75;;
55210;SDS011;41082;52.822;6.666;2023-01-26T01:12:47;52.00;;;21.00;;
55210;SDS011;41082;52.822;6.666;2023-01-26T01:15:13;48.05;;;20.55;;
55210;SDS011;41082;52.822;6.666;2023-01-26T01:17:38;53.95;;;20.45;;
55210;SDS011;41082;52.822;6.666;2023-01-26T01:20:05;57.97;;;24.00;;
55210;SDS011;41082;52.822;6.666;2023-01-26T01:22:32;57.78;;;21.33;;
55210;SDS011;41082;52.822;6.666;2023-01-26T01:24:58;52.55;;;21.02;;
55210;SDS011;41082;52.822;6.666;2023-01-26T01:27:23;46.45;;;20.08;;
55210;SDS011;41082;52.822;6.666;2023-01-26T01:29:49;51.85;;;20.98;;
55210;SDS011;41082;52.822;6.666;2023-01-26T01:32:16;45.53;;;19.42;;
55210;SDS011;41082;52.822;6.666;2023-01-26T01:34:42;54.00;;;20.90;;
55210;SDS011;41082;52.822;6.666;2023-01-26T01:37:10;46.97;;;20.35;;
55210;SDS011;41082;52.822;6.666;2023-01-26T01:39:35;48.75;;;19.70;;
55210;SDS011;41082;52.822;6.666;2023-01-26T01:42:01;51.63;;;19.42;;
55210;SDS011;41082;52.822;6.666;2023-01-26T01:44:26;47.72;;;19.38;;
55210;SDS011;41082;52.822;6.666;2023-01-26T01:46:54;50.20;;;20.90;;
55210;SDS011;41082;52.822;6.666;2023-01-26T01:49:27;48.35;;;19.33;;
55210;SDS011;41082;52.822;6.666;2023-01-26T01:52:10;48.03;;;19.08;;
55210;SDS011;41082;52.822;6.666;2023-01-26T01:54:45;48.13;;;18.45;;
55210;SDS011;41082;52.822;6.666;2023-01-26T01:57:39;50.25;;;19.65;;
55210;SDS011;41082;52.822;6.666;2023-01-26T02:00:10;49.65;;;20.25;;
55210;SDS011;41082;52.822;6.666;2023-01-26T02:02:44;48.08;;;19.08;;
55210;SDS011;41082;52.822;6.666;2023-01-26T02:05:32;47.90;;;17.52;;
55210;SDS011;41082;52.822;6.666;2023-01-26T02:08:02;52.28;;;20.85;;
55210;SDS011;41082;52.822;6.666;2023-01-26T02:10:29;49.97;;;18.60;;
55210;SDS011;41082;52.822;6.666;2023-01-26T02:12:56;47.15;;;18.48;;
55210;SDS011;41082;52.822;6.666;2023-01-26T02:15:24;49.97;;;19.95;;
55210;SDS011;41082;52.822;6.666;2023-01-26T02:17:51;50.88;;;20.73;;
55210;SDS011;41082;52.822;6.666;2023-01-26T02:23:06;49.17;;;19.27;;
55210;SDS011;41082;52.822;6.666;2023-01-26T02:28:17;44.60;;;17.92;;
55210;SDS011;41082;52.822;6.666;2023-01-26T02:30:44;48.38;;;18.98;;
55210;SDS011;41082;52.822;6.666;2023-01-26T02:33:17;45.50;;;17.95;;
55210;SDS011;41082;52.822;6.666;2023-01-26T02:35:47;47.53;;;17.60;;
55210;SDS011;41082;52.822;6.666;2023-01-26T02:38:13;42.55;;;17.27;;
55210;SDS011;41082;52.822;6.666;2023-01-26T02:43:15;37.97;;;16.00;;
55210;SDS011;41082;52.822;6.666;2023-01-26T02:45:41;42.45;;;17.85;;
55210;SDS011;41082;52.822;6.666;2023-01-26T02:48:07;41.80;;;16.98;;
55210;SDS011;41082;52.822;6.666;2023-01-26T02:50:33;38.92;;;16.58;;
55210;SDS011;41082;52.822;6.666;2023-01-26T02:52:59;39.33;;;15.80;;
55210;SDS011;41082;52.822;6.666;2023-01-26T02:55:26;40.10;;;16.10;;
55210;SDS011;41082;52.822;6.666;2023-01-26T02:58:02;38.65;;;15.00;;
55210;SDS011;41082;52.822;6.666;2023-01-26T03:00:33;38.95;;;15.57;;
55210;SDS011;41082;52.822;6.666;2023-01-26T03:03:01;42.55;;;15.40;;
55210;SDS011;41082;52.822;6.666;2023-01-26T03:05:34;38.92;;;14.73;;
55210;SDS011;41082;52.822;6.666;2023-01-26T03:08:00;38.88;;;15.45;;
55210;SDS011;41082;52.822;6.666;2023-01-26T03:10:26;40.05;;;15.43;;
55210;SDS011;41082;52.822;6.666;2023-01-26T03:12:51;35.70;;;15.00;;
55210;SDS011;41082;52.822;6.666;2023-01-26T03:15:17;36.67;;;14.32;;
55210;SDS011;41082;52.822;6.666;2023-01-26T03:18:06;32.70;;;13.05;;
55210;SDS011;41082;52.822;6.666;2023-01-26T03:20:54;34.55;;;14.07;;
55210;SDS011;41082;52.822;6.666;2023-01-26T03:23:40;32.10;;;12.85;;
55210;SDS011;41082;52.822;6.666;2023-01-26T03:26:24;33.45;;;12.88;;
55210;SDS011;41082;52.822;6.666;2023-01-26T03:29:19;30.30;;;13.18;;
55210;SDS011;41082;52.822;6.666;2023-01-26T03:31:45;33.75;;;12.90;;
55210;SDS011;41082;52.822;6.666;2023-01-26T03:34:12;31.25;;;12.35;;
55210;SDS011;41082;52.822;6.666;2023-01-26T03:36:37;34.50;;;13.07;;
55210;SDS011;41082;52.822;6.666;2023-01-26T03:39:03;30.75;;;12.85;;
55210;SDS011;41082;52.822;6.666;2023-01-26T03:41:29;29.40;;;11.65;;
55210;SDS011;41082;52.822;6.666;2023-01-26T03:44:13;31.02;;;12.52;;
55210;SDS011;41082;52.822;6.666;2023-01-26T03:46:57;28.83;;;11.75;;
55210;SDS011;41082;52.822;6.666;2023-01-26T03:49:42;30.30;;;12.45;;
55210;SDS011;41082;52.822;6.666;2023-01-26T03:52:27;29.27;;;10.80;;
55210;SDS011;41082;52.822;6.666;2023-01-26T03:55:13;29.33;;;11.23;;
55210;SDS011;41082;52.822;6.666;2023-01-26T03:57:57;28.60;;;11.02;;
55210;SDS011;41082;52.822;6.666;2023-01-26T04:00:23;27.88;;;10.90;;
55210;SDS011;41082;52.822;6.666;2023-01-26T04:02:48;28.02;;;11.52;;
55210;SDS011;41082;52.822;6.666;2023-01-26T04:05:33;27.88;;;11.07;;
55210;SDS011;41082;52.822;6.666;2023-01-26T04:08:17;27.60;;;11.52;;
55210;SDS011;41082;52.822;6.666;2023-01-26T04:10:47;31.75;;;11.10;;
55210;SDS011;41082;52.822;6.666;2023-01-26T04:13:17;25.70;;;10.80;;
55210;SDS011;41082;52.822;6.666;2023-01-26T04:16:03;26.10;;;10.80;;
55210;SDS011;41082;52.822;6.666;2023-01-26T04:18:47;28.08;;;11.50;;
55210;SDS011;41082;52.822;6.666;2023-01-26T04:21:31;25.10;;;9.93;;
55210;SDS011;41082;52.822;6.666;2023-01-26T04:23:58;26.80;;;10.35;;
55210;SDS011;41082;52.822;6.666;2023-01-26T04:26:29;31.73;;;11.60;;
55210;SDS011;41082;52.822;6.666;2023-01-26T04:29:02;29.25;;;11.65;;
55210;SDS011;41082;52.822;6.666;2023-01-26T04:31:29;27.53;;;10.70;;
55210;SDS011;41082;52.822;6.666;2023-01-26T04:33:55;28.00;;;11.05;;
55210;SDS011;41082;52.822;6.666;2023-01-26T04:36:21;30.38;;;11.35;;
55210;SDS011;41082;52.822;6.666;2023-01-26T04:38:47;25.55;;;9.98;;
55210;SDS011;41082;52.822;6.666;2023-01-26T04:41:13;29.85;;;12.18;;
55210;SDS011;41082;52.822;6.666;2023-01-26T04:43:39;30.10;;;11.77;;
55210;SDS011;41082;52.822;6.666;2023-01-26T04:46:05;24.05;;;9.95;;
55210;SDS011;41082;52.822;6.666;2023-01-26T04:48:32;24.30;;;10.35;;
55210;SDS011;41082;52.822;6.666;2023-01-26T04:50:59;28.63;;;11.70;;
55210;SDS011;41082;52.822;6.666;2023-01-26T04:53:26;26.20;;;10.40;;
55210;SDS011;41082;52.822;6.666;2023-01-26T04:55:52;24.77;;;10.35;;
55210;SDS011;41082;52.822;6.666;2023-01-26T04:58:19;25.42;;;10.73;;
55210;SDS011;41082;52.822;6.666;2023-01-26T05:00:51;22.65;;;10.13;;
55210;SDS011;41082;52.822;6.666;2023-01-26T05:03:18;25.40;;;9.98;;
55210;SDS011;41082;52.822;6.666;2023-01-26T05:05:44;21.05;;;8.85;;
55210;SDS011;41082;52.822;6.666;2023-01-26T05:08:12;21.73;;;9.38;;
55210;SDS011;41082;52.822;6.666;2023-01-26T05:10:37;22.27;;;9.02;;
55210;SDS011;41082;52.822;6.666;2023-01-26T05:13:03;19.80;;;8.23;;
55210;SDS011;41082;52.822;6.666;2023-01-26T05:15:29;21.80;;;9.32;;
55210;SDS011;41082;52.822;6.666;2023-01-26T05:17:56;23.20;;;9.02;;
55210;SDS011;41082;52.822;6.666;2023-01-26T05:20:23;21.90;;;8.25;;
55210;SDS011;41082;52.822;6.666;2023-01-26T05:22:49;21.27;;;8.68;;
55210;SDS011;41082;52.822;6.666;2023-01-26T05:25:15;21.73;;;9.50;;
55210;SDS011;41082;52.822;6.666;2023-01-26T05:27:41;20.38;;;8.35;;
55210;SDS011;41082;52.822;6.666;2023-01-26T05:30:06;20.77;;;8.93;;
55210;SDS011;41082;52.822;6.666;2023-01-26T05:32:33;23.55;;;9.13;;
55210;SDS011;41082;52.822;6.666;2023-01-26T05:34:58;20.90;;;8.65;;
55210;SDS011;41082;52.822;6.666;2023-01-26T05:37:24;19.58;;;7.95;;
55210;SDS011;41082;52.822;6.666;2023-01-26T05:39:51;21.73;;;8.32;;
55210;SDS011;41082;52.822;6.666;2023-01-26T05:42:16;20.05;;;8.50;;
55210;SDS011;41082;52.822;6.666;2023-01-26T05:44:42;20.85;;;9.00;;
55210;SDS011;41082;52.822;6.666;2023-01-26T05:47:08;19.77;;;8.85;;
55210;SDS011;41082;52.822;6.666;2023-01-26T05:49:33;20.20;;;8.55;;
55210;SDS011;41082;52.822;6.666;2023-01-26T05:51:59;19.05;;;8.20;;
55210;SDS011;41082;52.822;6.666;2023-01-26T05:54:25;18.20;;;8.23;;
55210;SDS011;41082;52.822;6.666;2023-01-26T05:56:50;18.55;;;8.70;;
55210;SDS011;41082;52.822;6.666;2023-01-26T05:59:21;18.35;;;8.32;;
55210;SDS011;41082;52.822;6.666;2023-01-26T06:01:47;19.33;;;8.77;;
55210;SDS011;41082;52.822;6.666;2023-01-26T06:04:12;19.73;;;8.95;;
55210;SDS011;41082;52.822;6.666;2023-01-26T06:06:38;24.13;;;9.77;;
55210;SDS011;41082;52.822;6.666;2023-01-26T06:09:03;23.02;;;9.23;;
55210;SDS011;41082;52.822;6.666;2023-01-26T06:11:30;16.92;;;8.65;;
55210;SDS011;41082;52.822;6.666;2023-01-26T06:13:56;23.02;;;9.52;;
55210;SDS011;41082;52.822;6.666;2023-01-26T06:16:22;21.10;;;8.98;;
55210;SDS011;41082;52.822;6.666;2023-01-26T06:18:47;23.63;;;9.15;;
55210;SDS011;41082;52.822;6.666;2023-01-26T06:21:14;26.73;;;10.57;;
55210;SDS011;41082;52.822;6.666;2023-01-26T06:23:40;25.70;;;10.18;;
55210;SDS011;41082;52.822;6.666;2023-01-26T06:26:05;29.30;;;10.52;;
55210;SDS011;41082;52.822;6.666;2023-01-26T06:28:31;29.55;;;11.25;;
55210;SDS011;41082;52.822;6.666;2023-01-26T06:31:03;37.90;;;12.05;;
55210;SDS011;41082;52.822;6.666;2023-01-26T06:33:30;41.20;;;11.90;;
55210;SDS011;41082;52.822;6.666;2023-01-26T06:36:02;34.33;;;12.45;;
55210;SDS011;41082;52.822;6.666;2023-01-26T06:38:29;40.80;;;13.73;;
55210;SDS011;41082;52.822;6.666;2023-01-26T06:41:02;32.10;;;13.15;;
55210;SDS011;41082;52.822;6.666;2023-01-26T06:43:30;37.25;;;12.38;;
55210;SDS011;41082;52.822;6.666;2023-01-26T06:45:56;44.53;;;14.20;;
55210;SDS011;41082;52.822;6.666;2023-01-26T06:48:26;39.13;;;14.13;;
55210;SDS011;41082;52.822;6.666;2023-01-26T06:50:55;44.72;;;14.88;;
55210;SDS011;41082;52.822;6.666;2023-01-26T06:55:54;37.70;;;14.07;;
55210;SDS011;41082;52.822;6.666;2023-01-26T06:58:20;47.45;;;15.05;;
55210;SDS011;41082;52.822;6.666;2023-01-26T07:00:45;45.55;;;14.98;;
55210;SDS011;41082;52.822;6.666;2023-01-26T07:03:11;45.20;;;14.80;;
55210;SDS011;41082;52.822;6.666;2023-01-26T07:05:36;43.03;;;15.63;;
55210;SDS011;41082;52.822;6.666;2023-01-26T07:08:02;46.95;;;15.38;;
55210;SDS011;41082;52.822;6.666;2023-01-26T07:10:30;46.80;;;14.85;;
55210;SDS011;41082;52.822;6.666;2023-01-26T07:12:56;53.20;;;15.57;;
55210;SDS011;41082;52.822;6.666;2023-01-26T07:15:21;49.22;;;15.88;;
55210;SDS011;41082;52.822;6.666;2023-01-26T07:17:47;48.70;;;15.25;;
55210;SDS011;41082;52.822;6.666;2023-01-26T07:20:12;45.80;;;15.48;;
55210;SDS011;41082;52.822;6.666;2023-01-26T07:22:38;48.72;;;17.05;;
55210;SDS011;41082;52.822;6.666;2023-01-26T07:25:04;49.47;;;15.57;;
55210;SDS011;41082;52.822;6.666;2023-01-26T07:27:30;47.58;;;14.80;;
55210;SDS011;41082;52.822;6.666;2023-01-26T07:29:55;62.72;;;17.00;;
55210;SDS011;41082;52.822;6.666;2023-01-26T07:32:21;58.83;;;16.70;;
55210;SDS011;41082;52.822;6.666;2023-01-26T07:34:46;59.80;;;17.40;;
55210;SDS011;41082;52.822;6.666;2023-01-26T07:37:13;46.90;;;16.35;;
55210;SDS011;41082;52.822;6.666;2023-01-26T07:39:38;58.55;;;17.40;;
55210;SDS011;41082;52.822;6.666;2023-01-26T07:42:04;59.50;;;17.48;;
55210;SDS011;41082;52.822;6.666;2023-01-26T07:44:30;49.67;;;15.07;;
55210;SDS011;41082;52.822;6.666;2023-01-26T07:46:56;62.80;;;16.50;;
55210;SDS011;41082;52.822;6.666;2023-01-26T07:49:22;62.05;;;16.50;;
55210;SDS011;41082;52.822;6.666;2023-01-26T07:51:47;61.03;;;18.02;;
55210;SDS011;41082;52.822;6.666;2023-01-26T07:54:13;62.08;;;16.90;;
55210;SDS011;41082;52.822;6.666;2023-01-26T07:56:39;79.75;;;16.80;;
55210;SDS011;41082;52.822;6.666;2023-01-26T07:59:04;58.30;;;17.60;;
55210;SDS011;41082;52.822;6.666;2023-01-26T08:01:30;75.00;;;17.73;;
55210;SDS011;41082;52.822;6.666;2023-01-26T08:03:55;71.65;;;17.85;;
55210;SDS011;41082;52.822;6.666;2023-01-26T08:06:21;57.78;;;16.42;;
55210;SDS011;41082;52.822;6.666;2023-01-26T08:08:48;70.05;;;18.27;;
55210;SDS011;41082;52.822;6.666;2023-01-26T08:11:15;66.72;;;16.17;;
55210;SDS011;41082;52.822;6.666;2023-01-26T08:13:42;60.22;;;16.77;;
55210;SDS011;41082;52.822;6.666;2023-01-26T08:16:08;60.60;;;16.05;;
55210;SDS011;41082;52.822;6.666;2023-01-26T08:18:36;93.05;;;16.95;;
55210;SDS011;41082;52.822;6.666;2023-01-26T08:21:03;94.85;;;17.30;;
55210;SDS011;41082;52.822;6.666;2023-01-26T08:23:29;61.10;;;15.32;;
55210;SDS011;41082;52.822;6.666;2023-01-26T08:25:59;47.58;;;15.90;;
55210;SDS011;41082;52.822;6.666;2023-01-26T08:28:25;49.30;;;15.60;;
55210;SDS011;41082;52.822;6.666;2023-01-26T08:30:51;43.60;;;13.40;;
55210;SDS011;41082;52.822;6.666;2023-01-26T08:33:16;35.50;;;13.52;;
55210;SDS011;41082;52.822;6.666;2023-01-26T08:35:42;36.05;;;13.30;;
55210;SDS011;41082;52.822;6.666;2023-01-26T08:38:07;29.58;;;11.68;;
55210;SDS011;41082;52.822;6.666;2023-01-26T08:40:33;81.80;;;12.25;;
55210;SDS011;41082;52.822;6.666;2023-01-26T08:42:59;61.67;;;11.73;;
55210;SDS011;41082;52.822;6.666;2023-01-26T08:45:26;63.55;;;11.50;;
55210;SDS011;41082;52.822;6.666;2023-01-26T08:47:52;42.10;;;10.98;;
55210;SDS011;41082;52.822;6.666;2023-01-26T08:50:18;147.63;;;13.75;;
55210;SDS011;41082;52.822;6.666;2023-01-26T08:52:43;77.32;;;11.68;;
55210;SDS011;41082;52.822;6.666;2023-01-26T08:55:10;159.05;;;13.48;;
55210;SDS011;41082;52.822;6.666;2023-01-26T08:57:35;34.72;;;9.75;;
55210;SDS011;41082;52.822;6.666;2023-01-26T09:00:01;23.73;;;9.15;;
55210;SDS011;41082;52.822;6.666;2023-01-26T09:02:28;38.67;;;10.05;;
55210;SDS011;41082;52.822;6.666;2023-01-26T09:04:53;19.27;;;8.30;;
55210;SDS011;41082;52.822;6.666;2023-01-26T09:07:19;62.28;;;10.57;;
55210;SDS011;41082;52.822;6.666;2023-01-26T09:09:45;55.10;;;10.05;;
55210;SDS011;41082;52.822;6.666;2023-01-26T09:12:10;51.83;;;9.90;;
55210;SDS011;41082;52.822;6.666;2023-01-26T09:14:36;31.05;;;9.30;;
55210;SDS011;41082;52.822;6.666;2023-01-26T09:17:01;44.38;;;8.60;;
55210;SDS011;41082;52.822;6.666;2023-01-26T09:19:27;51.80;;;9.65;;
55210;SDS011;41082;52.822;6.666;2023-01-26T09:21:53;56.72;;;10.63;;
55210;SDS011;41082;52.822;6.666;2023-01-26T09:24:19;27.70;;;8.70;;
55210;SDS011;41082;52.822;6.666;2023-01-26T09:26:48;37.65;;;8.60;;
55210;SDS011;41082;52.822;6.666;2023-01-26T09:29:14;34.08;;;9.30;;
55210;SDS011;41082;52.822;6.666;2023-01-26T09:31:41;44.40;;;10.30;;
55210;SDS011;41082;52.822;6.666;2023-01-26T09:34:06;27.23;;;9.40;;
55210;SDS011;41082;52.822;6.666;2023-01-26T09:36:32;51.92;;;8.52;;
55210;SDS011;41082;52.822;6.666;2023-01-26T09:38:58;19.27;;;8.32;;
55210;SDS011;41082;52.822;6.666;2023-01-26T09:44:23;21.60;;;8.05;;
55210;SDS011;41082;52.822;6.666;2023-01-26T09:47:10;23.38;;;8.75;;
55210;SDS011;41082;52.822;6.666;2023-01-26T09:49:50;56.67;;;8.60;;
55210;SDS011;41082;52.822;6.666;2023-01-26T09:52:26;15.80;;;7.47;;
55210;SDS011;41082;52.822;6.666;2023-01-26T09:55:12;36.50;;;8.15;;
55210;SDS011;41082;52.822;6.666;2023-01-26T09:57:55;32.83;;;7.72;;
55210;SDS011;41082;52.822;6.666;2023-01-26T10:03:22;21.50;;;7.40;;
55210;SDS011;41082;52.822;6.666;2023-01-26T10:06:13;17.63;;;6.18;;
55210;SDS011;41082;52.822;6.666;2023-01-26T10:08:45;18.08;;;6.28;;
55210;SDS011;41082;52.822;6.666;2023-01-26T10:11:19;21.27;;;6.45;;
55210;SDS011;41082;52.822;6.666;2023-01-26T10:13:59;24.30;;;6.53;;
55210;SDS011;41082;52.822;6.666;2023-01-26T10:16:32;19.60;;;6.90;;
55210;SDS011;41082;52.822;6.666;2023-01-26T10:21:38;30.55;;;6.80;;
55210;SDS011;41082;52.822;6.666;2023-01-26T10:24:10;25.52;;;7.38;;
55210;SDS011;41082;52.822;6.666;2023-01-26T10:26:37;30.83;;;7.70;;
55210;SDS011;41082;52.822;6.666;2023-01-26T10:29:03;28.65;;;6.97;;
55210;SDS011;41082;52.822;6.666;2023-01-26T10:31:30;27.98;;;6.85;;
55210;SDS011;41082;52.822;6.666;2023-01-26T10:33:58;35.25;;;8.43;;
55210;SDS011;41082;52.822;6.666;2023-01-26T10:36:30;27.00;;;7.32;;
55210;SDS011;41082;52.822;6.666;2023-01-26T10:39:09;34.00;;;7.18;;
55210;SDS011;41082;52.822;6.666;2023-01-26T10:41:37;34.75;;;7.00;;
55210;SDS011;41082;52.822;6.666;2023-01-26T10:46:39;38.92;;;7.03;;
55210;SDS011;41082;52.822;6.666;2023-01-26T10:51:39;37.17;;;7.40;;
55210;SDS011;41082;52.822;6.666;2023-01-26T10:54:12;29.45;;;6.97;;
55210;SDS011;41082;52.822;6.666;2023-01-26T10:56:51;28.60;;;5.90;;
55210;SDS011;41082;52.822;6.666;2023-01-26T10:59:27;35.65;;;5.82;;
55210;SDS011;41082;52.822;6.666;2023-01-26T11:04:35;35.92;;;5.00;;
55210;SDS011;41082;52.822;6.666;2023-01-26T11:07:23;33.97;;;5.30;;
55210;SDS011;41082;52.822;6.666;2023-01-26T11:09:50;36.78;;;4.47;;
55210;SDS011;41082;52.822;6.666;2023-01-26T11:12:17;39.78;;;5.20;;
55210;SDS011;41082;52.822;6.666;2023-01-26T11:15:05;36.28;;;4.18;;
55210;SDS011;41082;52.822;6.666;2023-01-26T11:17:37;32.60;;;4.38;;
55210;SDS011;41082;52.822;6.666;2023-01-26T11:25:52;35.33;;;3.35;;
55210;SDS011;41082;52.822;6.666;2023-01-26T11:28:30;28.20;;;2.83;;
55210;SDS011;41082;52.822;6.666;2023-01-26T11:31:26;29.80;;;3.42;;
55210;SDS011;41082;52.822;6.666;2023-01-26T11:37:27;32.08;;;2.63;;
55210;SDS011;41082;52.822;6.666;2023-01-26T11:48:36;37.47;;;3.17;;
55210;SDS011;41082;52.822;6.666;2023-01-26T11:51:23;27.98;;;2.88;;
55210;SDS011;41082;52.822;6.666;2023-01-26T11:54:12;33.15;;;2.80;;
55210;SDS011;41082;52.822;6.666;2023-01-26T11:57:14;23.10;;;2.67;;
55210;SDS011;41082;52.822;6.666;2023-01-26T11:59:45;22.45;;;2.45;;
55210;SDS011;41082;52.822;6.666;2023-01-26T12:02:31;24.98;;;2.58;;
55210;SDS011;41082;52.822;6.666;2023-01-26T12:05:01;21.25;;;2.10;;
55210;SDS011;41082;52.822;6.666;2023-01-26T12:10:32;27.52;;;2.08;;
55210;SDS011;41082;52.822;6.666;2023-01-26T12:13:11;21.80;;;2.55;;
55210;SDS011;41082;52.822;6.666;2023-01-26T12:15:46;18.25;;;1.50;;
55210;SDS011;41082;52.822;6.666;2023-01-26T12:18:28;25.02;;;3.10;;
55210;SDS011;41082;52.822;6.666;2023-01-26T12:21:02;30.38;;;3.53;;
55210;SDS011;41082;52.822;6.666;2023-01-26T12:23:43;16.42;;;1.60;;
55210;SDS011;41082;52.822;6.666;2023-01-26T12:26:20;17.48;;;1.35;;
55210;SDS011;41082;52.822;6.666;2023-01-26T12:28:59;20.95;;;1.75;;
55210;SDS011;41082;52.822;6.666;2023-01-26T12:34:28;18.80;;;1.80;;
55210;SDS011;41082;52.822;6.666;2023-01-26T12:37:05;16.02;;;1.23;;
55210;SDS011;41082;52.822;6.666;2023-01-26T12:39:56;19.13;;;1.58;;
55210;SDS011;41082;52.822;6.666;2023-01-26T12:42:52;19.63;;;1.80;;
55210;SDS011;41082;52.822;6.666;2023-01-26T12:48:17;10.45;;;1.55;;
55210;SDS011;41082;52.822;6.666;2023-01-26T12:50:56;13.98;;;1.13;;
55210;SDS011;41082;52.822;6.666;2023-01-26T12:53:29;14.93;;;1.00;;
55210;SDS011;41082;52.822;6.666;2023-01-26T12:58:35;10.98;;;0.98;;
55210;SDS011;41082;52.822;6.666;2023-01-26T13:01:08;11.05;;;0.77;;
55210;SDS011;41082;52.822;6.666;2023-01-26T13:03:38;13.40;;;0.98;;
55210;SDS011;41082;52.822;6.666;2023-01-26T13:08:39;9.60;;;0.60;;
55210;SDS011;41082;52.822;6.666;2023-01-26T13:11:13;10.82;;;0.82;;
55210;SDS011;41082;52.822;6.666;2023-01-26T13:16:50;16.08;;;1.77;;
55210;SDS011;41082;52.822;6.666;2023-01-26T13:27:35;10.82;;;0.63;;
55210;SDS011;41082;52.822;6.666;2023-01-26T13:35:17;10.98;;;0.70;;
55210;SDS011;41082;52.822;6.666;2023-01-26T13:40:23;14.90;;;1.52;;
55210;SDS011;41082;52.822;6.666;2023-01-26T13:48:45;8.15;;;0.70;;
55210;SDS011;41082;52.822;6.666;2023-01-26T13:51:12;13.02;;;1.02;;
55210;SDS011;41082;52.822;6.666;2023-01-26T13:54:11;16.40;;;1.10;;
55210;SDS011;41082;52.822;6.666;2023-01-26T13:56:39;12.95;;;1.40;;
55210;SDS011;41082;52.822;6.666;2023-01-26T13:59:14;13.27;;;0.75;;
55210;SDS011;41082;52.822;6.666;2023-01-26T14:01:42;8.57;;;1.10;;
55210;SDS011;41082;52.822;6.666;2023-01-26T14:04:19;7.05;;;0.80;;
55210;SDS011;41082;52.822;6.666;2023-01-26T14:06:48;11.85;;;1.00;;
55210;SDS011;41082;52.822;6.666;2023-01-26T14:09:18;10.35;;;0.75;;
55210;SDS011;41082;52.822;6.666;2023-01-26T14:11:45;10.80;;;0.70;;
55210;SDS011;41082;52.822;6.666;2023-01-26T14:14:22;11.30;;;1.38;;
55210;SDS011;41082;52.822;6.666;2023-01-26T14:16:49;13.70;;;1.38;;
55210;SDS011;41082;52.822;6.666;2023-01-26T14:19:16;6.07;;;0.88;;
55210;SDS011;41082;52.822;6.666;2023-01-26T14:21:48;8.88;;;0.50;;
55210;SDS011;41082;52.822;6.666;2023-01-26T14:24:14;8.25;;;0.50;;
55210;SDS011;41082;52.822;6.666;2023-01-26T14:26:41;6.18;;;0.40;;
55210;SDS011;41082;52.822;6.666;2023-01-26T14:29:11;8.68;;;0.40;;
55210;SDS011;41082;52.822;6.666;2023-01-26T14:31:42;13.93;;;0.50;;
55210;SDS011;41082;52.822;6.666;2023-01-26T14:34:10;4.60;;;0.30;;
55210;SDS011;41082;52.822;6.666;2023-01-26T14:36:42;5.35;;;0.50;;
55210;SDS011;41082;52.822;6.666;2023-01-26T14:39:13;8.02;;;0.25;;
55210;SDS011;41082;52.822;6.666;2023-01-26T14:41:42;7.05;;;0.30;;
55210;SDS011;41082;52.822;6.666;2023-01-26T14:44:08;6.07;;;0.68;;
55210;SDS011;41082;52.822;6.666;2023-01-26T14:46:36;7.97;;;0.85;;
55210;SDS011;41082;52.822;6.666;2023-01-26T14:49:19;3.83;;;0.30;;
55210;SDS011;41082;52.822;6.666;2023-01-26T14:51:53;7.53;;;0.75;;
55210;SDS011;41082;52.822;6.666;2023-01-26T14:54:28;6.87;;;0.63;;
55210;SDS011;41082;52.822;6.666;2023-01-26T14:56:56;6.22;;;0.45;;
55210;SDS011;41082;52.822;6.666;2023-01-26T14:59:32;6.68;;;1.05;;
55210;SDS011;41082;52.822;6.666;2023-01-26T15:02:08;10.15;;;0.60;;
55210;SDS011;41082;52.822;6.666;2023-01-26T15:04:39;12.02;;;1.75;;
55210;SDS011;41082;52.822;6.666;2023-01-26T15:09:58;12.27;;;0.75;;
55210;SDS011;41082;52.822;6.666;2023-01-26T15:12:25;6.05;;;0.43;;
55210;SDS011;41082;52.822;6.666;2023-01-26T15:14:54;10.68;;;1.30;;
55210;SDS011;41082;52.822;6.666;2023-01-26T15:19:55;9.50;;;0.80;;
55210;SDS011;41082;52.822;6.666;2023-01-26T15:22:22;6.90;;;0.60;;
55210;SDS011;41082;52.822;6.666;2023-01-26T15:25:01;13.07;;;0.60;;
55210;SDS011;41082;52.822;6.666;2023-01-26T15:27:43;14.93;;;0.63;;
55210;SDS011;41082;52.822;6.666;2023-01-26T15:30:19;9.05;;;0.90;;
55210;SDS011;41082;52.822;6.666;2023-01-26T15:32:49;12.18;;;0.82;;
55210;SDS011;41082;52.822;6.666;2023-01-26T15:38:04;11.20;;;0.65;;
55210;SDS011;41082;52.822;6.666;2023-01-26T15:40:33;8.25;;;0.50;;
55210;SDS011;41082;52.822;6.666;2023-01-26T15:45:38;9.63;;;0.73;;
55210;SDS011;41082;52.822;6.666;2023-01-26T15:48:12;9.50;;;0.63;;
55210;SDS011;41082;52.822;6.666;2023-01-26T15:50:37;5.20;;;0.57;;
55210;SDS011;41082;52.822;6.666;2023-01-26T15:53:03;17.70;;;1.17;;
55210;SDS011;41082;52.822;6.666;2023-01-26T15:55:29;11.15;;;0.65;;
55210;SDS011;41082;52.822;6.666;2023-01-26T15:57:57;12.10;;;0.52;;
55210;SDS011;41082;52.822;6.666;2023-01-26T16:00:23;18.65;;;0.73;;
55210;SDS011;41082;52.822;6.666;2023-01-26T16:02:49;7.75;;;0.70;;
55210;SDS011;41082;52.822;6.666;2023-01-26T16:05:19;9.65;;;1.35;;
55210;SDS011;41082;52.822;6.666;2023-01-26T16:07:46;11.27;;;1.20;;
55210;SDS011;41082;52.822;6.666;2023-01-26T16:10:12;11.90;;;1.00;;
55210;SDS011;41082;52.822;6.666;2023-01-26T16:12:39;13.55;;;0.85;;
55210;SDS011;41082;52.822;6.666;2023-01-26T16:15:26;12.63;;;0.80;;
55210;SDS011;41082;52.822;6.666;2023-01-26T16:18:02;12.90;;;0.95;;
55210;SDS011;41082;52.822;6.666;2023-01-26T16:20:27;14.65;;;1.23;;